createdAt,value
2023-12-28T00:01:19.305Z,55.30
2023-12-28T00:03:47.760Z,50.10
2023-12-28T00:06:16.822Z,51.03
2023-12-28T00:08:50.682Z,50.77
2023-12-28T00:11:26.473Z,53.23
2023-12-28T00:13:54.770Z,55.20
2023-12-28T00:16:23.236Z,52.80
2023-12-28T00:18:51.657Z,50.67
2023-12-28T00:21:20.260Z,50.80
2023-12-28T00:23:48.591Z,52.60
2023-12-28T00:26:22.414Z,55.70
2023-12-28T00:29:01.597Z,55.70
2023-12-28T00:31:30.057Z,58.43
2023-12-28T00:33:58.562Z,61.63
2023-12-28T00:36:27.129Z,48.73
2023-12-28T00:38:55.507Z,53.70
2023-12-28T00:41:23.907Z,49.60
2023-12-28T00:43:52.284Z,52.93
2023-12-28T00:46:22.021Z,51.93
2023-12-28T00:48:50.556Z,57.60
2023-12-28T00:51:19.040Z,48.43
2023-12-28T00:53:47.444Z,49.43
2023-12-28T00:56:15.877Z,47.43
2023-12-28T00:58:45.500Z,46.70
2023-12-28T01:01:13.981Z,49.13
2023-12-28T01:03:43.855Z,57.53
2023-12-28T01:06:12.280Z,50.40
2023-12-28T01:08:41.417Z,49.57
2023-12-28T01:11:09.854Z,47.57
2023-12-28T01:13:40.539Z,44.93
2023-12-28T01:16:10.177Z,41.60
2023-12-28T01:18:38.472Z,45.73
2023-12-28T01:21:08.527Z,43.67
2023-12-28T01:23:36.929Z,39.43
2023-12-28T01:26:05.377Z,45.27
2023-12-28T01:28:33.699Z,45.00
2023-12-28T01:31:02.046Z,41.47
2023-12-28T01:33:30.534Z,49.23
2023-12-28T01:35:58.811Z,41.63
2023-12-28T01:38:28.464Z,35.43
2023-12-28T01:40:56.970Z,40.93
2023-12-28T01:43:25.465Z,43.03
2023-12-28T01:45:53.970Z,41.60
2023-12-28T01:48:23.732Z,39.33
2023-12-28T01:50:52.318Z,34.23
2023-12-28T01:53:20.972Z,47.60
2023-12-28T01:55:51.075Z,39.83
2023-12-28T01:58:19.780Z,42.17
2023-12-28T02:00:48.555Z,39.03
2023-12-28T02:03:16.901Z,38.30
2023-12-28T02:05:47.761Z,37.40
2023-12-28T02:08:16.200Z,37.50
2023-12-28T02:10:44.717Z,32.60
2023-12-28T02:13:14.525Z,37.67
2023-12-28T02:15:43.210Z,35.90
2023-12-28T02:18:15.205Z,33.03
2023-12-28T02:20:45.299Z,34.23
2023-12-28T02:23:13.573Z,25.17
2023-12-28T02:25:43.419Z,31.80
2023-12-28T02:28:11.892Z,30.70
2023-12-28T02:30:40.291Z,33.73
2023-12-28T02:33:15.022Z,31.73
2023-12-28T02:35:46.936Z,35.83
2023-12-28T02:38:18.206Z,35.27
2023-12-28T02:40:49.513Z,26.67
2023-12-28T02:43:18.109Z,34.07
2023-12-28T02:45:46.638Z,26.87
2023-12-28T02:48:15.404Z,26.70
2023-12-28T02:50:43.876Z,27.37
2023-12-28T02:53:12.327Z,23.63
2023-12-28T02:55:43.626Z,24.87
2023-12-28T02:58:13.574Z,26.43
2023-12-28T03:00:41.987Z,30.40
2023-12-28T03:03:10.473Z,29.87
2023-12-28T03:05:39.119Z,28.27
2023-12-28T03:08:07.685Z,30.37
2023-12-28T03:10:36.121Z,36.13
2023-12-28T03:13:04.531Z,30.17
2023-12-28T03:15:35.243Z,26.23
2023-12-28T03:18:04.392Z,28.27
2023-12-28T03:20:32.862Z,21.47
2023-12-28T03:23:01.106Z,23.80
2023-12-28T03:25:29.459Z,26.17
2023-12-28T03:27:58.101Z,24.93
2023-12-28T03:30:26.756Z,22.83
2023-12-28T03:32:56.504Z,28.03
2023-12-28T03:35:24.787Z,21.10
2023-12-28T03:37:53.085Z,16.83
2023-12-28T03:40:23.773Z,22.40
2023-12-28T03:42:53.343Z,25.23
2023-12-28T03:45:21.919Z,28.50
2023-12-28T03:47:52.449Z,27.67
2023-12-28T03:50:22.230Z,21.10
2023-12-28T03:52:50.562Z,23.70
2023-12-28T03:55:19.698Z,24.90
2023-12-28T03:57:49.093Z,20.97
2023-12-28T04:00:18.021Z,26.30
2023-12-28T04:02:47.103Z,21.53
2023-12-28T04:05:16.317Z,17.70
2023-12-28T04:07:46.169Z,20.90
2023-12-28T04:10:14.679Z,23.40
2023-12-28T04:12:43.017Z,21.70
2023-12-28T04:15:11.630Z,20.83
2023-12-28T04:17:40.010Z,24.53
2023-12-28T04:20:10.180Z,24.67
2023-12-28T04:22:38.531Z,21.90
2023-12-28T04:25:09.385Z,24.57
2023-12-28T04:27:37.884Z,20.83
2023-12-28T04:30:07.648Z,20.07
2023-12-28T04:32:36.187Z,24.23
2023-12-28T04:35:05.617Z,23.57
2023-12-28T04:37:34.402Z,26.63
2023-12-28T04:40:04.322Z,18.77
2023-12-28T04:42:34.078Z,18.23
2023-12-28T04:45:02.285Z,19.97
2023-12-28T04:47:30.598Z,24.53
2023-12-28T04:50:00.300Z,23.73
2023-12-28T04:52:29.244Z,15.40
2023-12-28T04:54:57.676Z,20.23
2023-12-28T04:57:27.036Z,17.93
2023-12-28T04:59:57.113Z,24.33
2023-12-28T05:02:25.598Z,20.60
2023-12-28T05:04:54.834Z,24.93
2023-12-28T05:07:23.320Z,17.30
2023-12-28T05:09:51.736Z,18.40
2023-12-28T05:12:20.310Z,18.20
2023-12-28T05:14:48.884Z,23.20
2023-12-28T05:17:18.574Z,23.80
2023-12-28T05:19:46.893Z,16.13
2023-12-28T05:22:15.253Z,20.27
2023-12-28T05:24:43.608Z,18.50
2023-12-28T05:27:11.860Z,20.50
2023-12-28T05:29:40.113Z,23.13
2023-12-28T05:32:08.876Z,21.67
2023-12-28T05:34:38.728Z,22.70
2023-12-28T05:37:07.265Z,21.50
2023-12-28T05:39:35.579Z,28.63
2023-12-28T05:42:03.880Z,28.77
2023-12-28T05:44:35.029Z,19.73
2023-12-28T05:47:04.987Z,21.57
2023-12-28T05:49:33.359Z,29.10
2023-12-28T05:52:03.272Z,24.90
2023-12-28T05:54:31.646Z,24.13
2023-12-28T05:57:00.539Z,19.40
2023-12-28T05:59:28.749Z,21.73
2023-12-28T06:01:57.046Z,23.87
2023-12-28T06:04:25.393Z,20.27
2023-12-28T06:06:53.784Z,21.60
2023-12-28T06:09:23.501Z,20.50
2023-12-28T06:11:51.814Z,23.00
2023-12-28T06:14:20.116Z,26.03
2023-12-28T06:16:48.484Z,23.37
2023-12-28T06:19:16.929Z,29.87
2023-12-28T06:21:45.273Z,22.27
2023-12-28T06:24:13.761Z,24.93
2023-12-28T06:26:44.621Z,24.83
2023-12-28T06:29:13.203Z,25.20
2023-12-28T06:31:42.034Z,23.40
2023-12-28T06:34:10.797Z,24.07
2023-12-28T06:36:39.446Z,23.50
2023-12-28T06:39:07.882Z,28.17
2023-12-28T06:41:36.191Z,23.83
2023-12-28T06:44:06.039Z,28.73
2023-12-28T06:46:34.439Z,25.77
2023-12-28T06:49:03.007Z,25.90
2023-12-28T06:51:31.335Z,25.37
2023-12-28T06:54:00.306Z,25.90
2023-12-28T06:56:28.597Z,24.03
2023-12-28T06:58:57.695Z,26.40
2023-12-28T07:01:27.661Z,23.43
2023-12-28T07:03:56.079Z,23.00
2023-12-28T07:06:24.526Z,23.77
2023-12-28T07:08:52.964Z,23.90
2023-12-28T07:11:21.414Z,25.37
2023-12-28T07:13:49.954Z,26.33
2023-12-28T07:16:18.635Z,23.13
2023-12-28T07:18:48.661Z,29.13
2023-12-28T07:21:17.962Z,25.97
2023-12-28T07:23:50.508Z,22.87
2023-12-28T07:26:19.071Z,28.47
2023-12-28T07:28:49.780Z,21.37
2023-12-28T07:31:25.698Z,27.63
2023-12-28T07:33:56.403Z,26.07
2023-12-28T07:36:24.865Z,28.97
2023-12-28T07:38:53.201Z,22.40
2023-12-28T07:41:21.548Z,23.13
2023-12-28T07:43:50.379Z,26.60
2023-12-28T07:46:18.644Z,27.83
2023-12-28T07:48:47.197Z,25.50
2023-12-28T07:51:17.648Z,25.67
2023-12-28T07:53:46.052Z,21.73
2023-12-28T07:56:14.480Z,22.80
2023-12-28T07:58:42.930Z,24.40
2023-12-28T08:01:14.549Z,22.73
2023-12-28T08:03:43.461Z,24.10
2023-12-28T08:06:13.923Z,21.43
2023-12-28T08:08:43.922Z,24.07
2023-12-28T08:11:13.410Z,25.23
2023-12-28T08:13:41.795Z,22.67
2023-12-28T08:16:10.310Z,26.90
2023-12-28T08:18:38.615Z,22.70
2023-12-28T08:21:07.163Z,24.77
2023-12-28T08:23:35.594Z,23.73
2023-12-28T08:26:06.183Z,24.30
2023-12-28T08:28:34.422Z,26.57
2023-12-28T08:31:02.773Z,26.67
2023-12-28T08:33:31.422Z,27.53
2023-12-28T08:35:59.876Z,17.00
2023-12-28T08:38:30.328Z,27.07
2023-12-28T08:40:58.644Z,23.37
2023-12-28T08:43:28.315Z,22.03
2023-12-28T08:45:56.920Z,27.50
2023-12-28T08:48:26.541Z,22.43
2023-12-28T08:50:54.954Z,29.07
2023-12-28T08:53:23.200Z,37.80
2023-12-28T08:55:51.573Z,37.97
2023-12-28T08:58:21.142Z,32.93
2023-12-28T09:00:50.995Z,35.00
2023-12-28T09:03:20.465Z,32.40
2023-12-28T09:05:52.532Z,25.90
2023-12-28T09:08:20.932Z,22.97
2023-12-28T09:10:49.314Z,23.13
2023-12-28T09:13:18.534Z,21.87
2023-12-28T09:15:49.505Z,20.67
2023-12-28T09:18:19.628Z,19.60
2023-12-28T09:20:48.442Z,18.43
2023-12-28T09:23:16.846Z,20.53
2023-12-28T09:25:45.400Z,21.33
2023-12-28T09:28:14.422Z,17.47
2023-12-28T09:30:43.035Z,21.27
2023-12-28T09:33:11.577Z,21.53
2023-12-28T09:35:44.504Z,19.10
2023-12-28T09:38:17.376Z,20.43
2023-12-28T09:40:48.240Z,23.93
2023-12-28T09:43:24.155Z,18.33
2023-12-28T09:45:52.917Z,21.15
2023-12-28T09:48:23.313Z,19.80
2023-12-28T09:50:56.010Z,17.88
2023-12-28T09:53:25.186Z,23.13
2023-12-28T09:56:03.058Z,18.50
2023-12-28T09:58:33.688Z,20.10
2023-12-28T10:01:02.938Z,18.08
2023-12-28T10:03:31.624Z,24.27
2023-12-28T10:06:01.747Z,20.08
2023-12-28T10:08:30.341Z,20.02
2023-12-28T10:11:00.162Z,21.33
2023-12-28T10:13:28.493Z,22.07
2023-12-28T10:15:59.761Z,19.10
2023-12-28T10:18:28.490Z,17.15
2023-12-28T10:20:57.348Z,15.65
2023-12-28T10:23:27.327Z,16.88
2023-12-28T10:25:58.824Z,17.60
2023-12-28T10:28:27.346Z,13.35
2023-12-28T10:30:57.909Z,14.25
2023-12-28T10:33:27.164Z,12.95
2023-12-28T10:35:58.834Z,12.80
2023-12-28T10:38:36.191Z,14.57
2023-12-28T10:41:08.423Z,13.40
2023-12-28T10:43:46.287Z,12.30
2023-12-28T10:46:24.243Z,16.08
2023-12-28T10:48:59.368Z,13.85
2023-12-28T10:51:28.665Z,13.23
2023-12-28T10:54:07.862Z,13.30
2023-12-28T10:56:39.946Z,12.73
2023-12-28T10:59:16.237Z,12.00
2023-12-28T11:01:46.226Z,9.93
2023-12-28T11:04:24.799Z,11.85
2023-12-28T11:06:55.118Z,11.23
2023-12-28T11:09:26.916Z,10.45
2023-12-28T11:12:02.739Z,11.10
2023-12-28T11:14:31.496Z,11.38
2023-12-28T11:17:02.160Z,12.75
2023-12-28T11:19:31.417Z,12.77
2023-12-28T11:22:04.817Z,13.48
2023-12-28T11:24:35.797Z,12.07
2023-12-28T11:27:08.212Z,11.63
2023-12-28T11:29:38.413Z,13.93
2023-12-28T11:32:07.493Z,12.38
2023-12-28T11:34:36.125Z,12.65
2023-12-28T11:37:10.644Z,16.38
2023-12-28T11:39:41.591Z,11.30
2023-12-28T11:42:10.735Z,15.73
2023-12-28T11:44:45.159Z,16.88
2023-12-28T11:47:14.006Z,17.92
2023-12-28T11:49:42.967Z,16.13
2023-12-28T11:52:13.573Z,14.68
2023-12-28T11:54:52.102Z,14.82
2023-12-28T11:57:20.787Z,10.27
2023-12-28T11:59:54.940Z,13.75
2023-12-28T12:02:25.516Z,13.35
2023-12-28T12:04:55.684Z,15.65
2023-12-28T12:07:24.762Z,15.13
2023-12-28T12:09:59.585Z,13.60
2023-12-28T12:12:28.861Z,11.43
2023-12-28T12:14:58.425Z,14.43
2023-12-28T12:17:27.444Z,14.68
2023-12-28T12:19:59.146Z,11.52
2023-12-28T12:22:29.877Z,14.07
2023-12-28T12:25:05.180Z,12.40
2023-12-28T12:27:33.726Z,17.70
2023-12-28T12:30:02.161Z,15.25
2023-12-28T12:32:30.886Z,16.38
2023-12-28T12:34:59.353Z,14.38
2023-12-28T12:37:28.057Z,14.38
2023-12-28T12:39:56.468Z,14.45
2023-12-28T12:42:26.343Z,15.90
2023-12-28T12:44:54.761Z,15.27
2023-12-28T12:47:23.155Z,13.52
2023-12-28T12:49:53.634Z,11.85
2023-12-28T12:52:24.895Z,15.05
2023-12-28T12:54:56.520Z,14.50
2023-12-28T12:57:28.109Z,14.10
2023-12-28T12:59:56.886Z,15.15
2023-12-28T13:02:26.184Z,15.48
2023-12-28T13:04:55.950Z,15.23
2023-12-28T13:07:27.112Z,11.98
2023-12-28T13:09:55.672Z,20.50
2023-12-28T13:12:26.434Z,11.70
2023-12-28T13:14:55.096Z,11.43
2023-12-28T13:17:23.574Z,13.90
2023-12-28T13:19:52.431Z,13.43
2023-12-28T13:22:20.925Z,14.32
2023-12-28T13:24:50.410Z,13.77
2023-12-28T13:27:19.963Z,14.70
2023-12-28T13:29:49.587Z,14.82
2023-12-28T13:32:17.869Z,17.48
2023-12-28T13:34:49.901Z,15.98
2023-12-28T13:37:19.263Z,16.25
2023-12-28T13:39:48.631Z,14.93
2023-12-28T13:42:17.177Z,15.55
2023-12-28T13:44:45.867Z,13.35
2023-12-28T13:47:15.839Z,15.48
2023-12-28T13:49:44.808Z,21.05
2023-12-28T13:52:13.382Z,23.27
2023-12-28T13:54:41.931Z,18.77
2023-12-28T13:57:10.335Z,19.20
2023-12-28T13:59:38.978Z,15.18
2023-12-28T14:02:08.922Z,20.92
2023-12-28T14:04:38.931Z,16.23
2023-12-28T14:07:08.826Z,17.45
2023-12-28T14:09:39.649Z,13.30
2023-12-28T14:12:09.261Z,13.50
2023-12-28T14:14:38.062Z,14.77
2023-12-28T14:17:06.911Z,11.18
2023-12-28T14:19:35.773Z,15.23
2023-12-28T14:22:06.566Z,11.00
2023-12-28T14:24:35.632Z,13.00
2023-12-28T14:27:04.998Z,11.02
2023-12-28T14:29:33.895Z,11.90
2023-12-28T14:32:02.904Z,10.38
2023-12-28T14:34:33.291Z,12.48
2023-12-28T14:37:02.172Z,13.45
2023-12-28T14:39:32.034Z,9.73
2023-12-28T14:42:04.613Z,11.35
2023-12-28T14:44:33.072Z,15.70
2023-12-28T14:47:01.446Z,13.55
2023-12-28T14:49:29.851Z,20.30
2023-12-28T14:51:58.320Z,11.93
2023-12-28T14:54:26.929Z,15.40
2023-12-28T14:56:57.032Z,14.73
2023-12-28T14:59:25.368Z,11.85
2023-12-28T15:01:54.022Z,15.35
2023-12-28T15:04:25.891Z,13.77
2023-12-28T15:06:58.311Z,12.98
2023-12-28T15:09:27.145Z,15.55
2023-12-28T15:11:58.145Z,13.18
2023-12-28T15:14:26.969Z,11.77
2023-12-28T15:16:58.993Z,14.23
2023-12-28T15:19:28.442Z,17.50
2023-12-28T15:21:57.524Z,22.02
2023-12-28T15:24:26.861Z,18.05
2023-12-28T15:27:01.181Z,15.20
2023-12-28T15:29:29.837Z,15.15
2023-12-28T15:31:58.225Z,13.30
2023-12-28T15:34:29.241Z,13.10
2023-12-28T15:37:05.641Z,10.27
2023-12-28T15:39:36.024Z,15.27
2023-12-28T15:42:06.549Z,15.70
2023-12-28T15:44:34.902Z,17.88
2023-12-28T15:47:05.743Z,20.45
2023-12-28T15:49:34.324Z,20.17
2023-12-28T15:52:03.029Z,22.60
2023-12-28T15:54:33.934Z,15.88
2023-12-28T15:57:02.586Z,17.42
2023-12-28T15:59:35.273Z,18.48
2023-12-28T16:02:06.214Z,12.77
2023-12-28T16:04:43.280Z,17.55
2023-12-28T16:07:12.058Z,17.58
2023-12-28T16:09:40.488Z,13.88
2023-12-28T16:12:11.624Z,12.75
2023-12-28T16:14:42.262Z,15.60
2023-12-28T16:17:11.872Z,13.20
2023-12-28T16:19:43.196Z,16.88
2023-12-28T16:22:13.978Z,14.05
2023-12-28T16:24:42.369Z,15.77
2023-12-28T16:27:10.717Z,15.13
2023-12-28T16:29:39.042Z,15.05
2023-12-28T16:32:08.786Z,16.00
2023-12-28T16:34:37.898Z,16.00
2023-12-28T16:37:06.687Z,15.00
2023-12-28T16:39:35.182Z,13.93
2023-12-28T16:42:03.649Z,17.38
2023-12-28T16:44:32.082Z,13.88
2023-12-28T16:47:00.439Z,15.65
2023-12-28T16:49:30.278Z,15.57
2023-12-28T16:51:58.648Z,16.73
2023-12-28T16:54:27.084Z,16.73
2023-12-28T16:56:55.537Z,15.07
2023-12-28T16:59:24.773Z,16.85
2023-12-28T17:01:57.293Z,18.20
2023-12-28T17:04:26.229Z,16.27
2023-12-28T17:06:56.425Z,17.25
2023-12-28T17:09:25.331Z,22.73
2023-12-28T17:12:09.208Z,24.60
2023-12-28T17:14:38.116Z,18.65
2023-12-28T17:17:07.269Z,20.30
2023-12-28T17:19:36.433Z,19.08
2023-12-28T17:22:08.912Z,14.23
2023-12-28T17:24:46.963Z,14.88
2023-12-28T17:27:23.099Z,20.40
2023-12-28T17:29:53.400Z,16.27
2023-12-28T17:32:24.117Z,13.68
2023-12-28T17:34:53.197Z,15.40
2023-12-28T17:37:23.591Z,14.85
2023-12-28T17:39:52.615Z,16.10
2023-12-28T17:42:31.571Z,12.02
2023-12-28T17:45:02.518Z,17.48
2023-12-28T17:47:50.685Z,17.10
2023-12-28T17:50:21.284Z,15.93
2023-12-28T17:52:52.498Z,17.25
2023-12-28T17:55:22.283Z,19.55
2023-12-28T17:57:50.883Z,16.85
2023-12-28T18:00:20.184Z,17.42
2023-12-28T18:02:48.678Z,17.75
2023-12-28T18:05:17.334Z,15.73
2023-12-28T18:07:45.691Z,19.55
2023-12-28T18:10:15.531Z,19.00
2023-12-28T18:12:45.974Z,18.88
2023-12-28T18:15:15.046Z,15.18
2023-12-28T18:17:43.580Z,19.55
2023-12-28T18:20:12.710Z,20.20
2023-12-28T18:22:41.748Z,21.33
2023-12-28T18:25:10.497Z,20.20
2023-12-28T18:27:40.451Z,20.00
2023-12-28T18:30:11.371Z,17.10
2023-12-28T18:32:41.566Z,20.80
2023-12-28T18:35:10.812Z,22.63
2023-12-28T18:37:42.272Z,23.33
2023-12-28T18:40:12.974Z,18.98
2023-12-28T18:42:42.972Z,18.55
2023-12-28T18:45:12.691Z,15.85
2023-12-28T18:47:41.635Z,20.30
2023-12-28T18:50:10.998Z,17.83
2023-12-28T18:52:39.533Z,17.80
2023-12-28T18:55:08.997Z,16.27
2023-12-28T18:57:37.591Z,19.58
2023-12-28T19:00:09.053Z,19.35
2023-12-28T19:02:37.556Z,17.92
2023-12-28T19:05:06.675Z,18.75
2023-12-28T19:07:35.218Z,17.33
2023-12-28T19:10:03.807Z,20.10
2023-12-28T19:12:32.494Z,19.38
2023-12-28T19:15:00.836Z,20.77
2023-12-28T19:17:30.583Z,19.60
2023-12-28T19:19:59.015Z,14.80
2023-12-28T19:22:27.930Z,23.63
2023-12-28T19:24:56.469Z,21.85
2023-12-28T19:27:26.720Z,18.25
2023-12-28T19:29:58.980Z,19.27
2023-12-28T19:32:27.764Z,13.88
2023-12-28T19:35:00.437Z,15.20
2023-12-28T19:37:29.160Z,17.73
2023-12-28T19:39:57.483Z,20.13
2023-12-28T19:42:25.754Z,33.08
2023-12-28T19:44:54.120Z,26.35
2023-12-28T19:47:22.515Z,21.92
2023-12-28T19:49:50.912Z,21.63
2023-12-28T19:52:23.246Z,20.30
2023-12-28T19:54:53.023Z,17.27
2023-12-28T19:57:21.498Z,14.00
2023-12-28T19:59:49.745Z,13.68
2023-12-28T20:02:18.915Z,15.70
2023-12-28T20:04:47.241Z,15.10
2023-12-28T20:07:15.732Z,15.55
2023-12-28T20:09:45.569Z,15.88
2023-12-28T20:12:13.876Z,14.77
2023-12-28T20:14:42.126Z,15.85
2023-12-28T20:17:10.425Z,18.23
2023-12-28T20:19:38.858Z,24.10
2023-12-28T20:22:07.208Z,25.77
2023-12-28T20:24:35.632Z,16.67
2023-12-28T20:27:05.736Z,15.25
2023-12-28T20:29:34.029Z,14.48
2023-12-28T20:32:02.319Z,16.35
2023-12-28T20:34:30.649Z,15.75
2023-12-28T20:36:59.113Z,15.07
2023-12-28T20:39:27.462Z,13.90
2023-12-28T20:41:56.117Z,16.98
2023-12-28T20:44:25.759Z,13.60
2023-12-28T20:46:54.124Z,16.52
2023-12-28T20:49:31.586Z,14.02
2023-12-28T20:52:03.489Z,15.90
2023-12-28T20:54:31.786Z,16.17
2023-12-28T20:57:00.108Z,15.82
2023-12-28T20:59:29.885Z,13.48
2023-12-28T21:01:59.077Z,16.27
2023-12-28T21:04:29.018Z,15.40
2023-12-28T21:06:57.833Z,17.48
2023-12-28T21:09:27.052Z,15.20
2023-12-28T21:12:01.271Z,12.75
2023-12-28T21:14:32.701Z,12.90
2023-12-28T21:17:01.227Z,14.20
2023-12-28T21:19:29.791Z,12.38
2023-12-28T21:22:01.836Z,14.65
2023-12-28T21:24:30.573Z,12.27
2023-12-28T21:26:59.039Z,12.88
2023-12-28T21:29:27.504Z,12.38
2023-12-28T21:31:57.353Z,14.18
2023-12-28T21:34:26.135Z,13.65
2023-12-28T21:36:54.519Z,13.75
2023-12-28T21:39:22.877Z,14.65
2023-12-28T21:41:51.275Z,14.02
2023-12-28T21:44:20.797Z,13.63
2023-12-28T21:46:49.195Z,15.05
2023-12-28T21:49:19.344Z,19.25
2023-12-28T21:51:47.784Z,12.85
2023-12-28T21:54:16.430Z,14.25
2023-12-28T21:56:47.037Z,13.10
2023-12-28T21:59:23.410Z,12.07
2023-12-28T22:01:53.474Z,16.40
2023-12-28T22:04:31.072Z,11.82
2023-12-28T22:06:59.601Z,12.95
2023-12-28T22:09:27.991Z,14.77
2023-12-28T22:11:58.035Z,12.77
2023-12-28T22:14:26.400Z,15.93
2023-12-28T22:16:55.132Z,14.55
2023-12-28T22:19:25.584Z,14.60
2023-12-28T22:21:54.166Z,15.50
2023-12-28T22:24:25.389Z,18.08
2023-12-28T22:26:58.519Z,16.23
2023-12-28T22:29:26.898Z,13.35
2023-12-28T22:31:55.427Z,13.73
2023-12-28T22:34:25.500Z,17.33
2023-12-28T22:36:54.301Z,16.42
2023-12-28T22:39:22.651Z,14.77
2023-12-28T22:41:53.032Z,15.13
2023-12-28T22:44:21.534Z,14.82
2023-12-28T22:46:49.975Z,14.23
2023-12-28T22:49:18.589Z,14.35
2023-12-28T22:51:49.859Z,16.13
2023-12-28T22:54:19.147Z,16.33
2023-12-28T22:56:49.504Z,17.80
2023-12-28T22:59:18.524Z,18.85
2023-12-28T23:01:47.030Z,16.90
2023-12-28T23:04:15.522Z,13.27
2023-12-28T23:06:44.022Z,18.70
2023-12-28T23:09:13.764Z,16.75
2023-12-28T23:11:42.996Z,12.77
2023-12-28T23:14:11.954Z,15.30
2023-12-28T23:16:40.331Z,16.10
2023-12-28T23:19:09.355Z,15.60
2023-12-28T23:21:37.804Z,13.57
2023-12-28T23:24:07.057Z,14.98
2023-12-28T23:26:36.722Z,16.20
2023-12-28T23:29:04.943Z,14.82
2023-12-28T23:31:33.219Z,11.82
2023-12-28T23:34:02.460Z,16.67
2023-12-28T23:36:33.193Z,14.73
2023-12-28T23:39:01.668Z,13.00
2023-12-28T23:41:29.977Z,15.90
2023-12-28T23:43:59.712Z,14.18
2023-12-28T23:46:28.165Z,17.85
2023-12-28T23:48:56.584Z,14.85
2023-12-28T23:51:24.903Z,18.13
2023-12-28T23:53:53.245Z,14.77
2023-12-28T23:56:22.650Z,13.70
2023-12-28T23:58:51.008Z,11.68
